RPi & Temperatures at JO21ut

Last graph updates: Monday 20 February 2017 02:02 CET

Sunrise: 07:38 & Sunset: 18:03 The Sun is currently not visible. [-43.78 degrees] and 147935114 Km from the Earth
Moonrise: 3:11 & Moonset: 12:15 Last Quarter Moon The Moon is 404774 Km from the Earth
Find here more details on MARS.

02:37:04 up 13 days, 4:57, 0 users, load average: 0.53, 0.42, 0.41
Current CPU frequency is: 1000 Mhz
Current GPU temperature: 26.096°C
Current inside temperature is 17.5°C with a humidity of 67.6%
Second inside temperature is 17.6°C with a pressure of 1015.79 Hpa (29.76 inHg) and an uncorrected altitude of -21.21 m
ds18b20 now showing 16.9°C

All the sensors I use, DHT22 | BMP085 | MPU6050 | BH1750FVI | MMA7455 | HMC5883L | MPL3115A2 | DS1307 | HTU21 | AM2321 | DS3231 | INA219 , and it's current readout can be viewed here please be patient as it needs to read all sensors data. The page loads after about 10 seconds. In our forum more details can be found such as the used software/sources. Feel free to add yours also..


Pressure BMP085
Pressure BMP085
Pressure BMP085
Pressure BMP085
PI CPU Temp
Inet Volkel temp
Inside temp BMP085
Humidity BMP085
PI CPU Temp
Inet Volkel temp
Inside temp BMP085
Humidity BMP085
PI CPU Temp
Inet Volkel temp
Inside temp BMP085
Humidity BMP085
PI CPU Temp
Inet Volkel temp
Inside temp BMP085
Humidity BMP085
PI CPU Temp
Inet Volkel temp
Inside temp BMP085
Humidity BMP085
Inside light BH1750FV
Inside light BH1750FV
Inside light BH1750FV
Inside light BH1750FV
Inside light BH1750FV
Inside light BH1750FV
 

Sun & Moon height


Wijchen weather

Weer Widget
ScreenSaver yr.no

Sun Moon Earth


EHVK 200125Z AUTO 22009KT 6000 BR OVC037 07/06 Q1020 WHT EHVK 200125Z AUTO 22009KT 6000 BR OVC037 07/06 Q1020 WHT EHVK 200125Z AUTO 22009KT 6000 BR OVC037 07/06 Q1020 WHT

Weather data from Volkel [NL] EHVK


12 minutes ago, at 01:25 UTC, the wind was blowing at a speed of 4.6 meters per second (10.4 miles per hour/9 knots) from Southwest (220) in Volkel [EHVK], Netherlands. The temperature was 7 °C (45 °F) with a dewpoint of 6 °C (43 °F), and the pressure was 1,020 hPa (30.12 inHg). The relative humidity was 93.3%. There were overcast at a height of 1128 meter (3700 feet). The visibility was 6.0 kilometers (3.7 miles). Current weather is Moderate Mist .




View code:

Contact me  |  My Raspberry PI forum